Time;durP1;ratioP1;P1;durP2;ratioP2;P2;SDS_P1;SDS_P2;PMS_P1;PMS_P2;Temp;Humidity;BMP_temperature;BMP_pressure;BME280_temperature;BME280_humidity;BME280_pressure;Samples;Min_cycle;Max_cycle;Signal;HPM_P1;HPM_P2
2024/04/03 00:01:32;;;;;;;1.23;1.10;;;;;;;-1.10;74.95;100055.22;5001840;28;20822;-77
2024/04/03 00:03:58;;;;;;;1.20;1.00;;;;;;;-1.06;74.71;100080.09;5001373;28;20220;-78
2024/04/03 00:06:25;;;;;;;3.10;1.70;;;;;;;-1.12;74.16;100062.91;5003863;28;20448;-79
2024/04/03 00:08:52;;;;;;;1.57;0.90;;;;;;;-1.10;74.17;100058.66;5005693;28;20212;-78
2024/04/03 00:11:19;;;;;;;2.50;1.60;;;;;;;-1.10;74.29;100056.09;5003793;28;20526;-80
2024/04/03 00:13:45;;;;;;;3.40;1.47;;;;;;;-1.09;74.26;100062.09;5001445;28;20488;-78
2024/04/03 00:16:12;;;;;;;1.63;1.10;;;;;;;-1.09;74.08;100060.38;5004468;28;20466;-79
2024/04/03 00:18:38;;;;;;;2.00;1.17;;;;;;;-1.11;73.63;100077.47;5001017;28;20205;-79
2024/04/03 00:21:06;;;;;;;3.33;0.80;;;;;;;-1.12;74.61;100050.06;5003960;28;20448;-79
2024/04/03 00:23:32;;;;;;;1.43;0.70;;;;;;;-1.12;74.50;100059.47;5003089;28;20205;-83
2024/04/03 00:26:02;;;;;;;3.30;1.80;;;;;;;-1.12;74.29;100080.00;5003887;28;20476;-83
2024/04/03 00:28:29;;;;;;;1.47;1.00;;;;;;;-1.12;74.09;100077.44;5003787;28;20221;-82
2024/04/03 00:30:56;;;;;;;2.27;1.67;;;;;;;-1.12;73.48;100082.56;5002091;28;20957;-82
2024/04/03 00:33:22;;;;;;;3.53;1.40;;;;;;;-1.13;74.13;100070.59;5005460;28;20494;-83
2024/04/03 00:35:56;;;;;;;1.20;1.10;;;;;;;-1.11;74.08;100069.78;5005801;28;20547;-82
2024/04/03 00:38:22;;;;;;;3.17;1.30;;;;;;;-1.11;73.61;100081.75;5002107;28;20449;-83
2024/04/03 00:40:56;;;;;;;2.07;0.90;;;;;;;-1.15;73.63;100069.69;5003508;28;20557;-83
2024/04/03 00:43:24;;;;;;;3.70;1.27;;;;;;;-1.15;73.94;100083.41;5005330;28;20208;-82
2024/04/03 00:45:51;;;;;;;2.47;1.33;;;;;;;-1.12;73.38;100086.00;5001953;28;20515;-83
2024/04/03 00:48:18;;;;;;;1.37;1.10;;;;;;;-1.13;73.88;100075.72;5004729;28;20439;-82
2024/04/03 00:50:46;;;;;;;1.80;1.07;;;;;;;-1.13;74.11;100081.72;5003058;28;20801;-83
2024/04/03 00:53:13;;;;;;;1.00;0.97;;;;;;;-1.09;73.99;100093.75;5002060;28;20491;-74
2024/04/03 00:55:41;;;;;;;3.03;1.37;;;;;;;-1.08;74.06;100099.78;5002404;28;20455;-74
2024/04/03 00:58:07;;;;;;;2.30;1.23;;;;;;;-1.10;73.01;100093.75;5000363;28;20985;-73
2024/04/03 01:00:36;;;;;;;1.80;0.87;;;;;;;-1.11;72.78;100094.59;5003461;28;20456;-74
2024/04/03 01:03:03;;;;;;;0.67;0.60;;;;;;;-1.13;73.35;100103.97;5000427;28;20205;-73
2024/04/03 01:05:30;;;;;;;3.37;1.23;;;;;;;-1.13;73.46;100112.53;5002855;28;20451;-73
2024/04/03 01:07:56;;;;;;;1.37;1.00;;;;;;;-1.17;73.24;100095.38;5001271;28;20452;-74
2024/04/03 01:10:23;;;;;;;1.67;0.97;;;;;;;-1.15;72.80;100087.66;5001908;28;20828;-74
2024/04/03 01:12:49;;;;;;;2.93;1.37;;;;;;;-1.15;73.85;100090.25;5001876;28;20229;-75
2024/04/03 01:15:16;;;;;;;2.00;1.13;;;;;;;-1.16;72.82;100098.78;5000857;28;20460;-75
2024/04/03 01:17:43;;;;;;;1.53;0.50;;;;;;;-1.18;73.45;100101.31;5002953;28;20456;-74
2024/04/03 01:20:11;;;;;;;1.60;0.90;;;;;;;-1.19;73.50;100104.75;4999580;28;20452;-73
2024/04/03 01:22:37;;;;;;;0.90;0.70;;;;;;;-1.20;72.96;100100.44;5002870;28;20522;-73
2024/04/03 01:25:06;;;;;;;0.97;0.63;;;;;;;-1.23;73.47;100096.16;5000653;28;20543;-74
2024/04/03 01:27:32;;;;;;;2.00;0.67;;;;;;;-1.20;72.66;100112.41;5001719;28;20204;-74
2024/04/03 01:29:59;;;;;;;0.93;0.73;;;;;;;-1.23;73.27;100098.72;5001625;28;20460;-74
2024/04/03 01:32:25;;;;;;;0.97;0.87;;;;;;;-1.22;72.96;100125.22;5000677;28;20228;-74
2024/04/03 01:34:52;;;;;;;1.60;1.30;;;;;;;-1.23;73.19;100111.53;5002761;28;20463;-75
2024/04/03 01:37:18;;;;;;;0.60;0.40;;;;;;;-1.25;72.84;100108.09;5001582;28;20240;-74
2024/04/03 01:39:45;;;;;;;0.17;0.10;;;;;;;-1.26;73.72;100106.38;5009805;28;20535;-73
2024/04/03 01:42:12;;;;;;;0.70;0.63;;;;;;;-1.25;72.67;100104.66;5006531;28;20459;-74
2024/04/03 01:44:39;;;;;;;2.70;1.57;;;;;;;-1.26;72.58;100118.31;5008688;28;20972;-74
2024/04/03 01:47:05;;;;;;;1.37;1.10;;;;;;;-1.28;72.50;100105.47;5007886;28;20444;-74
2024/04/03 01:49:32;;;;;;;2.93;1.07;;;;;;;-1.28;73.24;100114.88;5007736;28;20436;-75
2024/04/03 01:51:58;;;;;;;1.97;1.10;;;;;;;-1.28;72.16;100113.16;5008470;28;20213;-74
2024/04/03 01:54:26;;;;;;;0.80;0.67;;;;;;;-1.30;72.54;100114.00;5006661;28;20486;-75
2024/04/03 01:56:52;;;;;;;2.63;1.40;;;;;;;-1.32;73.18;100113.94;5009476;28;20236;-72
2024/04/03 01:59:21;;;;;;;2.37;1.03;;;;;;;-1.32;72.79;100124.22;5005986;28;20448;-72
2024/04/03 02:01:47;;;;;;;1.23;0.97;;;;;;;-1.33;72.30;100112.25;5009126;28;20440;-83
2024/04/03 02:04:14;;;;;;;1.07;0.60;;;;;;;-1.34;72.38;100125.03;5008926;28;20478;-82
2024/04/03 02:06:40;;;;;;;3.03;1.40;;;;;;;-1.35;73.07;100111.34;5008527;28;20200;-82
2024/04/03 02:09:07;;;;;;;2.33;1.40;;;;;;;-1.35;73.23;100121.59;5009765;28;20456;-83
2024/04/03 02:11:32;;;;;;;1.30;1.20;;;;;;;-1.37;72.49;100113.03;5011453;28;20206;-83
2024/04/03 02:14:00;;;;;;;2.53;1.13;;;;;;;-1.34;72.81;100128.47;5007915;28;20476;-83
2024/04/03 02:16:29;;;;;;;3.73;1.50;;;;;;;-1.34;72.63;100128.47;5010979;28;20222;-83
2024/04/03 02:18:56;;;;;;;5.00;1.30;;;;;;;-1.36;72.95;100117.31;5007166;28;20505;-82
2024/04/03 02:21:22;;;;;;;1.30;1.00;;;;;;;-1.36;71.87;100114.75;5007100;28;20452;-82
2024/04/03 02:23:49;;;;;;;1.83;1.10;;;;;;;-1.39;71.87;100112.16;5008623;28;20471;-83
2024/04/03 02:26:15;;;;;;;1.20;1.10;;;;;;;-1.37;71.94;100124.97;5008966;28;20455;-83
2024/04/03 02:28:42;;;;;;;0.77;0.73;;;;;;;-1.39;72.41;100114.72;5009436;28;20467;-82
2024/04/03 02:31:08;;;;;;;2.87;1.30;;;;;;;-1.38;72.20;100136.97;5007974;28;20220;-82
2024/04/03 02:33:36;;;;;;;2.33;1.30;;;;;;;-1.39;72.53;100145.50;5010596;28;20482;-83
2024/04/03 02:36:08;;;;;;;1.60;1.30;;;;;;;-1.39;72.83;100124.97;5007191;28;20209;-83
2024/04/03 02:38:35;;;;;;;2.00;1.03;;;;;;;-1.38;72.13;100130.97;5008309;28;20456;-82
2024/04/03 02:41:01;;;;;;;2.13;1.10;;;;;;;-1.38;72.37;100136.97;5009038;28;20447;-82
2024/04/03 02:43:28;;;;;;;1.70;1.10;;;;;;;-1.35;72.55;100125.88;5008014;28;20475;-77
2024/04/03 02:45:54;;;;;;;1.77;1.07;;;;;;;-1.35;72.63;100142.13;5006721;28;20256;-78
2024/04/03 02:48:21;;;;;;;3.40;1.80;;;;;;;-1.36;72.41;100134.44;5008386;28;20452;-77
2024/04/03 02:50:49;;;;;;;2.53;1.60;;;;;;;-1.37;73.02;100140.38;5002918;28;20205;-79
2024/04/03 02:53:16;;;;;;;2.97;1.30;;;;;;;-1.40;72.44;100148.03;5002282;28;20558;-78
2024/04/03 02:55:42;;;;;;;1.23;0.87;;;;;;;-1.39;72.07;100152.34;5003372;28;20957;-78
2024/04/03 02:58:08;;;;;;;1.53;1.30;;;;;;;-1.39;72.89;100145.50;5004890;28;20479;-77
2024/04/03 03:00:34;;;;;;;3.13;1.50;;;;;;;-1.39;73.04;100157.47;5003970;28;20209;-78
2024/04/03 03:03:01;;;;;;;1.50;1.40;;;;;;;-1.39;71.91;100168.59;5002540;28;20453;-78
2024/04/03 03:05:27;;;;;;;1.53;0.93;;;;;;;-1.44;72.04;100136.88;5006225;28;20263;-76
2024/04/03 03:07:56;;;;;;;1.40;1.20;;;;;;;-1.47;72.84;100129.13;5003041;28;20882;-77
2024/04/03 03:10:21;;;;;;;3.03;2.10;;;;;;;-1.43;72.26;100141.16;5002065;28;20244;-78
2024/04/03 03:12:48;;;;;;;4.57;1.50;;;;;;;-1.43;71.75;100143.72;5001922;28;20485;-78
2024/04/03 03:15:14;;;;;;;1.90;1.70;;;;;;;-1.44;71.77;100136.00;5005198;28;20205;-78
2024/04/03 03:17:41;;;;;;;2.33;1.80;;;;;;;-1.46;71.63;100130.84;5001830;28;20455;-79
2024/04/03 03:20:07;;;;;;;5.57;1.73;;;;;;;-1.57;71.52;100129.81;5003436;28;20773;-78
2024/04/03 03:22:34;;;;;;;2.10;1.23;;;;;;;-1.49;71.54;100144.47;5003813;28;20451;-78
2024/04/03 03:25:01;;;;;;;2.63;1.30;;;;;;;-1.47;72.50;100139.38;5004215;28;20448;-80
2024/04/03 03:27:28;;;;;;;1.57;1.23;;;;;;;-1.48;71.82;100141.09;5002681;28;20536;-80
2024/04/03 03:29:54;;;;;;;2.43;1.50;;;;;;;-1.46;72.05;100139.44;5005266;28;20455;-78
2024/04/03 03:32:21;;;;;;;0.43;0.40;;;;;;;-1.44;72.04;100142.00;5001891;28;20453;-78
2024/04/03 03:34:47;;;;;;;3.17;1.73;;;;;;;-1.44;71.83;100151.41;5004880;28;20239;-77
2024/04/03 03:37:14;;;;;;;1.80;1.10;;;;;;;-1.44;71.64;100136.88;5002652;28;20449;-79
2024/04/03 03:39:42;;;;;;;2.13;1.77;;;;;;;-1.42;71.29;100150.59;5004558;28;20208;-78
2024/04/03 03:42:10;;;;;;;1.27;1.17;;;;;;;-1.47;71.59;100142.81;5005056;28;20448;-78
2024/04/03 03:44:36;;;;;;;2.33;1.67;;;;;;;-1.42;71.00;100160.00;5003946;28;20456;-78
2024/04/03 03:47:03;;;;;;;1.90;1.60;;;;;;;-1.43;71.74;100169.38;5005840;28;20519;-78
2024/04/03 03:55:00;;;;;;;1.57;1.27;;;;;;;-1.51;71.39;100170.97;5003529;28;20439;-79
2024/04/03 03:57:30;;;;;;;1.27;1.07;;;;;;;-1.47;71.26;100160.78;5003713;28;20539;-77
2024/04/03 03:59:57;;;;;;;1.93;1.63;;;;;;;-1.45;71.56;100155.69;5001245;28;20457;-77
2024/04/03 04:02:23;;;;;;;2.90;1.70;;;;;;;-1.45;70.73;100168.50;5004871;28;20495;-78
2024/04/03 04:04:50;;;;;;;2.27;1.90;;;;;;;-1.45;70.50;100183.91;5001156;28;20464;-77
2024/04/03 04:07:18;;;;;;;1.50;0.90;;;;;;;-1.46;71.03;100156.50;5004156;28;20959;-78
2024/04/03 04:09:48;;;;;;;2.10;1.80;;;;;;;-1.49;70.29;100165.00;5002184;28;20872;-80
2024/04/03 04:12:14;;;;;;;2.27;1.30;;;;;;;-1.49;70.72;100179.53;5002298;28;20455;-79
2024/04/03 04:14:43;;;;;;;1.90;1.60;;;;;;;-1.49;70.81;100174.41;5003575;28;20483;-79
2024/04/03 04:17:08;;;;;;;1.17;0.97;;;;;;;-1.52;70.49;100174.34;5001226;28;20217;-80
2024/04/03 04:19:35;;;;;;;1.57;1.40;;;;;;;-1.48;70.82;100171.03;5004631;28;20451;-80
2024/04/03 04:22:01;;;;;;;2.53;1.73;;;;;;;-1.47;70.86;100177.88;5000503;28;20202;-79
2024/04/03 04:24:28;;;;;;;1.33;0.90;;;;;;;-1.48;70.68;100176.16;5003908;28;20448;-78
2024/04/03 04:26:59;;;;;;;2.90;1.53;;;;;;;-1.47;70.84;100189.00;5004423;28;20201;-79
2024/04/03 04:29:27;;;;;;;2.10;1.90;;;;;;;-1.45;71.04;100196.72;5003247;28;20456;-78
2024/04/03 04:31:55;;;;;;;1.43;1.33;;;;;;;-1.49;70.72;100192.38;5000699;28;20448;-78
2024/04/03 04:34:21;;;;;;;3.50;1.67;;;;;;;-1.48;70.23;100191.56;5000684;28;20566;-78
2024/04/03 04:36:47;;;;;;;2.10;1.27;;;;;;;-1.46;69.81;100211.28;4997208;28;20448;-79
2024/04/03 04:39:14;;;;;;;2.93;1.80;;;;;;;-1.47;70.72;100191.56;5003692;28;20456;-78
2024/04/03 04:41:40;;;;;;;2.03;1.20;;;;;;;-1.46;70.60;100194.97;5001573;28;20208;-78
2024/04/03 04:44:07;;;;;;;3.97;1.50;;;;;;;-1.46;69.94;100184.72;5002942;28;20455;-78
2024/04/03 04:46:33;;;;;;;1.40;1.20;;;;;;;-1.47;70.20;100188.13;5004169;28;20283;-78
2024/04/03 04:49:01;;;;;;;3.67;1.70;;;;;;;-1.44;70.05;100195.88;5002700;28;20564;-78
2024/04/03 04:51:27;;;;;;;1.43;1.07;;;;;;;-1.43;70.79;100199.31;5001152;28;20206;-78
2024/04/03 04:53:54;;;;;;;2.63;1.73;;;;;;;-1.43;70.85;100197.59;5004004;28;20479;-77
2024/04/03 04:56:20;;;;;;;1.60;1.20;;;;;;;-1.43;70.78;100202.72;5000769;28;20229;-79
2024/04/03 04:58:47;;;;;;;0.80;0.77;;;;;;;-1.42;70.47;100194.22;5004420;28;20455;-78
2024/04/03 05:01:12;;;;;;;1.77;1.20;;;;;;;-1.41;70.79;100203.63;5003564;28;20205;-79
2024/04/03 05:03:39;;;;;;;1.10;1.00;;;;;;;-1.41;71.33;100219.03;5002859;28;21078;-73
2024/04/03 05:06:14;;;;;;;3.03;1.60;;;;;;;-1.41;71.03;100224.16;5003419;28;20200;-73
2024/04/03 05:08:41;;;;;;;1.40;0.93;;;;;;;-1.43;70.69;100230.09;5003557;28;20948;-74
2024/04/03 05:11:07;;;;;;;1.80;0.93;;;;;;;-1.44;70.53;100224.09;4999840;28;20520;-73
2024/04/03 05:13:34;;;;;;;0.73;0.53;;;;;;;-1.47;71.15;100221.50;5002397;28;20495;-73
2024/04/03 05:16:05;;;;;;;2.00;1.17;;;;;;;-1.44;70.50;100246.34;5000870;28;20568;-72
2024/04/03 05:18:32;;;;;;;0.43;0.43;;;;;;;-1.44;70.91;100233.50;5001632;28;20463;-74
2024/04/03 05:20:57;;;;;;;1.60;0.97;;;;;;;-1.45;70.69;100245.47;5002237;28;20448;-75
2024/04/03 05:23:26;;;;;;;1.30;0.87;;;;;;;-1.44;70.91;100254.91;5000935;28;20445;-75
2024/04/03 05:25:56;;;;;;;2.43;1.20;;;;;;;-1.41;71.12;100264.34;5003002;28;20208;-72
2024/04/03 05:28:23;;;;;;;0.93;0.67;;;;;;;-1.40;70.84;100250.66;5000245;28;20448;-74
2024/04/03 05:30:49;;;;;;;1.50;0.80;;;;;;;-1.40;71.21;100250.66;5002503;28;20904;-72
2024/04/03 05:33:16;;;;;;;3.37;1.20;;;;;;;-1.42;71.17;100247.25;4999615;28;20484;-75
2024/04/03 05:35:41;;;;;;;3.13;1.10;;;;;;;-1.43;70.41;100251.47;5001537;28;20205;-73
2024/04/03 05:38:08;;;;;;;3.17;1.00;;;;;;;-1.45;70.36;100266.00;5000953;28;20458;-75
2024/04/03 05:40:37;;;;;;;3.07;1.30;;;;;;;-1.46;71.09;100280.53;5002325;28;20569;-75
2024/04/03 05:43:04;;;;;;;2.30;1.37;;;;;;;-1.46;70.29;100295.94;4999616;28;20460;-76
2024/04/03 05:45:30;;;;;;;4.53;1.40;;;;;;;-1.46;71.09;100288.25;5003450;28;20820;-76
2024/04/03 05:47:58;;;;;;;1.50;1.27;;;;;;;-1.45;70.75;100253.19;5000042;28;20441;-75
2024/04/03 05:50:24;;;;;;;2.03;0.67;;;;;;;-1.45;70.40;100289.09;5002414;28;20209;-76
2024/04/03 05:52:51;;;;;;;2.37;1.37;;;;;;;-1.44;70.20;100302.78;5000833;28;21064;-77
2024/04/03 05:55:17;;;;;;;2.50;0.50;;;;;;;-1.46;70.46;100283.09;5001054;28;20238;-76
2024/04/03 05:57:45;;;;;;;2.07;0.80;;;;;;;-1.44;70.01;100266.88;5001760;28;20836;-75
2024/04/03 06:00:13;;;;;;;3.00;1.77;;;;;;;-1.45;70.14;100289.09;4999919;28;20202;-76
2024/04/03 06:02:40;;;;;;;2.60;1.20;;;;;;;-1.46;69.08;100302.75;5002981;28;20513;-75
2024/04/03 06:05:06;;;;;;;1.90;1.30;;;;;;;-1.45;70.07;100289.09;4999684;28;20457;-75
2024/04/03 06:07:34;;;;;;;1.00;0.90;;;;;;;-1.45;69.94;100299.38;5002286;28;20447;-75
2024/04/03 06:10:00;;;;;;;4.27;0.77;;;;;;;-1.43;69.96;100300.22;5000682;28;20456;-76
2024/04/03 06:12:26;;;;;;;1.53;0.97;;;;;;;-1.44;70.01;100307.91;5001402;28;20513;-74
2024/04/03 06:14:54;;;;;;;0.77;0.77;;;;;;;-1.42;69.29;100303.69;5001599;28;20235;-75
2024/04/03 06:17:21;;;;;;;2.57;1.10;;;;;;;-1.44;69.46;100311.34;5000163;28;20836;-74
2024/04/03 06:19:47;;;;;;;1.37;0.70;;;;;;;-1.46;69.30;100302.75;5002557;28;20535;-74
2024/04/03 06:22:14;;;;;;;0.67;0.63;;;;;;;-1.42;68.78;100326.78;4998966;28;20520;-74
2024/04/03 06:24:40;;;;;;;2.50;0.83;;;;;;;-1.43;68.93;100340.44;5002189;28;20452;-75
2024/04/03 06:27:07;;;;;;;1.47;0.90;;;;;;;-1.45;68.38;100330.16;5005574;28;20823;-74
2024/04/03 06:29:34;;;;;;;1.70;1.10;;;;;;;-1.46;67.83;100351.50;5004145;28;20460;-73
2024/04/03 06:32:02;;;;;;;0.40;0.40;;;;;;;-1.45;67.72;100330.16;5004628;28;20458;-74
2024/04/03 06:34:29;;;;;;;1.63;0.80;;;;;;;-1.47;67.43;100357.47;5005039;28;20483;-74
2024/04/03 06:36:55;;;;;;;1.20;0.63;;;;;;;-1.47;67.44;100326.69;5003386;28;20455;-73
2024/04/03 06:39:22;;;;;;;1.53;1.20;;;;;;;-1.46;66.74;100356.63;5006047;28;20812;-73
2024/04/03 06:41:48;;;;;;;1.60;0.90;;;;;;;-1.47;67.41;100348.06;5006678;28;20271;-78
2024/04/03 06:44:14;;;;;;;1.27;1.13;;;;;;;-1.49;65.89;100336.03;5003116;28;20932;-79
2024/04/03 06:46:40;;;;;;;2.00;0.90;;;;;;;-1.44;66.88;100349.84;5005436;28;20200;-79
2024/04/03 06:49:11;;;;;;;2.63;1.00;;;;;;;-1.42;66.73;100337.06;5003832;28;20470;-79
2024/04/03 06:51:37;;;;;;;1.57;1.20;;;;;;;-1.37;66.26;100340.53;5003925;28;20207;-79
2024/04/03 06:54:07;;;;;;;1.07;0.97;;;;;;;-1.36;66.84;100343.16;5005310;28;20486;-79
2024/04/03 06:56:33;;;;;;;1.27;0.83;;;;;;;-1.33;66.82;100340.63;5002610;28;20703;-79
2024/04/03 06:59:00;;;;;;;0.87;0.63;;;;;;;-1.31;67.28;100351.81;5002695;28;20448;-79
2024/04/03 07:01:26;;;;;;;2.93;0.90;;;;;;;-1.28;66.80;100346.72;5005489;28;20443;-78
2024/04/03 07:03:53;;;;;;;2.83;1.20;;;;;;;-1.26;66.60;100351.88;5003214;28;20463;-77
2024/04/03 07:06:21;;;;;;;1.83;0.93;;;;;;;-1.24;66.92;100345.06;5006334;28;20570;-78
2024/04/03 07:08:49;;;;;;;1.83;0.97;;;;;;;-1.23;66.30;100352.81;5003598;28;20506;-79
2024/04/03 07:11:15;;;;;;;1.00;0.50;;;;;;;-1.18;66.66;100349.44;5006038;28;20447;-78
2024/04/03 07:13:42;;;;;;;0.60;0.40;;;;;;;-1.15;66.53;100375.19;5005265;28;20586;-77
2024/04/03 07:16:08;;;;;;;0.60;0.57;;;;;;;-1.13;66.33;100384.66;5002138;28;20444;-77
2024/04/03 07:18:37;;;;;;;1.07;0.80;;;;;;;-1.12;66.06;100378.66;5005426;28;20466;-77
2024/04/03 07:21:04;;;;;;;1.30;0.60;;;;;;;-1.15;66.16;100383.75;5003076;28;20209;-78
2024/04/03 07:23:32;;;;;;;0.83;0.80;;;;;;;-1.08;65.65;100400.16;5004250;28;20906;-77
2024/04/03 07:25:58;;;;;;;2.87;1.13;;;;;;;-1.08;65.75;100379.59;5001762;28;20456;-77
2024/04/03 07:28:27;;;;;;;0.37;0.37;;;;;;;-1.06;65.13;100401.00;5004641;28;20804;-79
2024/04/03 07:30:53;;;;;;;8.33;0.77;;;;;;;-1.04;64.65;100394.22;5002175;28;20205;-77
2024/04/03 07:33:20;;;;;;;1.00;0.70;;;;;;;-1.04;64.31;100395.06;5005471;28;20452;-78
2024/04/03 07:35:46;;;;;;;1.50;0.70;;;;;;;-1.03;65.09;100406.22;5001514;28;20441;-78
2024/04/03 07:38:13;;;;;;;1.57;0.97;;;;;;;-1.03;64.90;100395.94;5004891;28;20820;-78
2024/04/03 07:40:43;;;;;;;1.00;0.90;;;;;;;-0.98;64.79;100414.00;5003567;28;20247;-78
2024/04/03 07:43:10;;;;;;;0.70;0.70;;;;;;;-0.96;65.07;100420.03;5004454;28;20460;-78
2024/04/03 07:45:36;;;;;;;1.40;0.90;;;;;;;-0.97;63.61;100415.72;5005480;28;20456;-78
2024/04/03 07:48:04;;;;;;;0.80;0.80;;;;;;;-1.03;62.95;100419.94;5002715;28;20502;-78
2024/04/03 07:50:30;;;;;;;0.70;0.70;;;;;;;-1.01;63.72;100425.94;5002095;28;20454;-78
2024/04/03 07:52:56;;;;;;;0.50;0.50;;;;;;;-0.97;64.50;100446.53;5002252;28;20443;-76
2024/04/03 07:55:22;;;;;;;0.40;0.27;;;;;;;-0.96;63.94;100432.88;5002655;28;20236;-77
2024/04/03 07:57:51;;;;;;;1.23;0.83;;;;;;;-0.93;62.82;100449.22;5005361;28;20476;-77
2024/04/03 08:00:18;;;;;;;1.87;0.87;;;;;;;-0.93;62.44;100456.91;5004549;28;20663;-76
2024/04/03 08:02:45;;;;;;;1.07;0.40;;;;;;;-0.95;62.17;100444.88;5003026;28;20865;-76
2024/04/03 08:05:12;;;;;;;0.60;0.60;;;;;;;-0.97;62.51;100455.13;5004151;28;20459;-77
2024/04/03 08:07:42;;;;;;;1.70;0.70;;;;;;;-0.95;62.70;100456.00;5006512;28;20452;-77
2024/04/03 08:10:09;;;;;;;2.43;0.77;;;;;;;-0.92;63.17;100462.91;5003158;28;20945;-77
2024/04/03 08:12:37;;;;;;;1.20;1.10;;;;;;;-0.92;62.85;100481.75;5004454;28;20814;-76
2024/04/03 08:15:06;;;;;;;1.57;0.90;;;;;;;-0.89;62.52;100479.22;5003854;28;20480;-75
2024/04/03 08:17:33;;;;;;;2.23;1.10;;;;;;;-0.87;62.73;100492.13;5002774;28;20514;-74
2024/04/03 08:19:59;;;;;;;2.23;0.67;;;;;;;-0.84;63.23;100484.47;5003125;28;20455;-74
2024/04/03 08:22:26;;;;;;;1.07;0.90;;;;;;;-0.85;62.20;100477.63;5001386;28;20445;-76
2024/04/03 08:24:52;;;;;;;1.20;1.07;;;;;;;-0.84;60.73;100489.59;5004914;28;20219;-75
2024/04/03 08:27:19;;;;;;;0.77;0.50;;;;;;;-0.89;62.10;100494.63;5002119;28;20455;-76
2024/04/03 08:29:48;;;;;;;1.23;0.73;;;;;;;-0.88;61.45;100485.25;5002950;28;20452;-75
2024/04/03 08:32:16;;;;;;;2.47;1.13;;;;;;;-0.91;60.34;100498.03;5003376;28;20458;-84
2024/04/03 08:34:42;;;;;;;3.43;1.00;;;;;;;-0.94;61.55;100493.72;5004165;28;20480;-82
2024/04/03 08:37:12;;;;;;;0.50;0.40;;;;;;;-0.94;61.50;100496.28;5002965;28;20460;-83
2024/04/03 08:39:38;;;;;;;2.47;0.73;;;;;;;-0.92;61.37;100499.72;5001954;28;20501;-83
2024/04/03 08:42:05;;;;;;;2.17;1.13;;;;;;;-0.90;61.54;100521.16;5001813;28;20476;-83
2024/04/03 08:44:33;;;;;;;1.67;0.90;;;;;;;-0.87;61.87;100504.97;5005131;28;20501;-83
2024/04/03 08:47:01;;;;;;;0.87;0.87;;;;;;;-0.90;62.11;100490.34;5003448;28;20468;-83
2024/04/03 08:49:30;;;;;;;1.97;1.07;;;;;;;-0.82;60.46;100518.75;5005817;28;20499;-84
2024/04/03 08:52:01;;;;;;;3.27;0.73;;;;;;;-0.81;61.56;100508.50;5002792;28;20937;-83
2024/04/03 08:54:28;;;;;;;1.60;0.77;;;;;;;-0.87;61.45;100503.25;5006185;28;21019;-83
2024/04/03 08:56:55;;;;;;;2.30;1.03;;;;;;;-0.80;60.70;100519.66;5004758;28;20472;-82
2024/04/03 08:59:22;;;;;;;0.57;0.33;;;;;;;-0.73;61.13;100523.22;5002938;28;20950;-84
2024/04/03 09:01:50;;;;;;;1.20;0.60;;;;;;;-0.72;61.35;100541.22;5003509;28;20435;-74
2024/04/03 09:04:16;;;;;;;0.33;0.33;;;;;;;-0.71;61.88;100526.69;5002197;28;20448;-75
2024/04/03 09:06:45;;;;;;;1.77;1.33;;;;;;;-0.76;61.20;100524.00;5000985;28;20825;-75
2024/04/03 09:09:18;;;;;;;0.93;0.80;;;;;;;-0.71;60.54;100540.38;5003431;28;20444;-75
2024/04/03 09:11:47;;;;;;;0.90;0.57;;;;;;;-0.69;61.07;100537.84;4999735;28;21023;-75
2024/04/03 09:14:18;;;;;;;2.20;1.40;;;;;;;-0.67;60.37;100533.59;5001625;28;20487;-75
2024/04/03 09:16:45;;;;;;;2.53;1.17;;;;;;;-0.64;60.46;100531.09;5000955;28;20484;-75
2024/04/03 09:19:11;;;;;;;1.40;0.80;;;;;;;-0.63;61.54;100532.81;5004105;28;20447;-75
2024/04/03 09:21:38;;;;;;;0.83;0.70;;;;;;;-0.61;61.09;100544.00;5000138;28;20452;-74
2024/04/03 09:24:06;;;;;;;2.30;1.00;;;;;;;-0.60;61.29;100562.03;5000047;28;20206;-75
2024/04/03 09:26:33;;;;;;;1.70;0.80;;;;;;;-0.61;60.23;100544.84;5002488;28;20933;-75
2024/04/03 09:29:00;;;;;;;1.90;1.10;;;;;;;-0.61;60.67;100555.13;5001194;28;20459;-75
2024/04/03 09:31:27;;;;;;;0.97;0.70;;;;;;;-0.61;60.65;100556.84;5001410;28;20940;-75
2024/04/03 09:33:53;;;;;;;0.50;0.50;;;;;;;-0.61;60.60;100555.13;5001951;28;20463;-76
2024/04/03 09:36:21;;;;;;;1.20;0.70;;;;;;;-0.60;60.12;100571.44;5000355;28;20980;-74
2024/04/03 09:38:47;;;;;;;0.87;0.57;;;;;;;-0.59;60.95;100568.88;5004171;28;21029;-76
2024/04/03 09:41:16;;;;;;;1.17;0.67;;;;;;;-0.60;60.82;100581.72;5003825;28;20534;-81
2024/04/03 09:43:44;;;;;;;2.80;1.00;;;;;;;-0.59;60.80;100574.03;5001264;28;20285;-74
2024/04/03 09:46:14;;;;;;;1.37;0.70;;;;;;;-0.58;60.60;100580.03;5001739;28;20510;-73
2024/04/03 09:48:41;;;;;;;1.47;0.80;;;;;;;-0.62;60.40;100591.09;5001875;28;20456;-74
2024/04/03 09:51:09;;;;;;;0.70;0.70;;;;;;;-0.61;60.71;100579.97;5001572;28;20452;-74
2024/04/03 09:53:36;;;;;;;0.77;0.60;;;;;;;-0.55;61.01;100590.34;4999675;28;20456;-73
2024/04/03 09:56:04;;;;;;;1.10;1.00;;;;;;;-0.62;60.41;100579.09;5000162;28;20487;-74
2024/04/03 09:58:37;;;;;;;1.47;0.87;;;;;;;-0.54;61.65;100604.97;5003988;28;20976;-74
2024/04/03 10:01:05;;;;;;;2.03;1.07;;;;;;;-0.53;61.71;100593.84;5005685;28;20468;-71
2024/04/03 10:03:34;;;;;;;1.80;1.10;;;;;;;-0.54;61.29;100592.13;5004006;28;20503;-73
2024/04/03 10:06:03;;;;;;;1.43;1.07;;;;;;;-0.53;60.90;100606.69;5006815;28;20941;-72
2024/04/03 10:08:33;;;;;;;1.90;0.90;;;;;;;-0.52;60.78;100602.41;5003839;28;20937;-72
2024/04/03 10:11:05;;;;;;;2.17;0.80;;;;;;;-0.51;61.54;100593.88;5006073;28;20447;-73
2024/04/03 10:13:32;;;;;;;1.07;0.73;;;;;;;-0.47;61.13;100603.38;5007294;28;20443;-72
2024/04/03 10:16:02;;;;;;;2.87;1.03;;;;;;;-0.51;59.71;100633.28;5003679;28;20531;-75
2024/04/03 10:18:28;;;;;;;1.00;0.70;;;;;;;-0.52;60.39;100631.53;5003317;28;20941;-74
2024/04/03 10:20:57;;;;;;;3.87;1.53;;;;;;;-0.53;58.68;100618.66;5003879;28;20464;-74
2024/04/03 10:23:24;;;;;;;2.70;1.20;;;;;;;-0.56;58.73;100619.47;5006629;28;20937;-74
2024/04/03 10:25:51;;;;;;;2.97;0.77;;;;;;;-0.53;59.32;100614.38;5005128;28;20471;-74
2024/04/03 10:28:18;;;;;;;2.23;1.13;;;;;;;-0.51;58.85;100623.00;5005440;28;20952;-75
2024/04/03 10:30:46;;;;;;;2.37;1.20;;;;;;;-0.48;59.27;100617.06;5006723;28;20960;-74
2024/04/03 10:33:14;;;;;;;0.90;0.70;;;;;;;-0.45;59.14;100622.25;5003079;28;20876;-72
2024/04/03 10:35:41;;;;;;;1.80;0.80;;;;;;;-0.45;59.42;100617.97;5005938;28;20502;-73
2024/04/03 10:38:08;;;;;;;1.63;1.00;;;;;;;-0.43;58.70;100628.28;5003670;28;20799;-75
2024/04/03 10:40:35;;;;;;;3.20;1.10;;;;;;;-0.42;59.65;100627.47;5004974;28;20451;-75
2024/04/03 10:43:01;;;;;;;2.47;1.00;;;;;;;-0.42;58.38;100623.19;5004533;28;20452;-74
2024/04/03 10:45:27;;;;;;;4.03;1.20;;;;;;;-0.41;58.68;100639.47;5004006;28;20462;-74
2024/04/03 10:47:53;;;;;;;2.03;1.23;;;;;;;-0.41;58.69;100655.75;5005366;28;20205;-73
2024/04/03 10:50:22;;;;;;;1.20;1.10;;;;;;;-0.38;58.40;100650.66;5004192;28;20455;-75
2024/04/03 10:52:49;;;;;;;2.20;1.20;;;;;;;-0.40;58.68;100644.66;5007145;28;20208;-74
2024/04/03 10:55:19;;;;;;;2.17;0.97;;;;;;;-0.40;58.17;100652.38;5002882;28;21064;-74
2024/04/03 10:57:47;;;;;;;1.87;1.03;;;;;;;-0.40;58.69;100667.78;5004464;28;20473;-76
2024/04/03 11:00:15;;;;;;;1.97;1.10;;;;;;;-0.39;58.21;100658.38;5005209;28;20456;-76
2024/04/03 11:02:45;;;;;;;1.30;1.17;;;;;;;-0.37;58.64;100649.84;5004017;28;20440;-74
2024/04/03 11:05:14;;;;;;;2.10;1.10;;;;;;;-0.34;58.61;100651.63;5005698;28;20459;-74
2024/04/03 11:07:42;;;;;;;1.50;0.73;;;;;;;-0.30;58.88;100658.53;5002860;28;20480;-74
2024/04/03 11:10:12;;;;;;;0.53;0.53;;;;;;;-0.27;59.34;100660.31;5003332;28;20458;-75
2024/04/03 11:12:38;;;;;;;1.50;1.13;;;;;;;-0.25;59.20;100663.78;5004198;28;20789;-75
2024/04/03 11:15:07;;;;;;;0.27;0.23;;;;;;;-0.23;58.50;100673.25;5002957;28;20480;-75
2024/04/03 11:17:33;;;;;;;4.07;1.07;;;;;;;-0.23;58.77;100680.09;5005399;28;20448;-75
2024/04/03 11:20:00;;;;;;;1.97;0.83;;;;;;;-0.22;58.10;100675.00;5002217;28;20440;-76
2024/04/03 11:22:26;;;;;;;1.23;0.67;;;;;;;-0.21;58.59;100689.56;5005272;28;20907;-78
2024/04/03 11:24:55;;;;;;;1.50;0.70;;;;;;;-0.20;58.12;100687.88;5002898;28;20825;-77
2024/04/03 11:27:22;;;;;;;4.53;1.60;;;;;;;-0.21;58.36;100688.69;5006007;28;20208;-77
2024/04/03 11:29:49;;;;;;;1.10;0.77;;;;;;;-0.20;56.83;100690.47;5003586;28;20462;-77